sensor_id;sensor_type;location;lat;lon;timestamp;temperature;humidity
84067;SHT35;74151;52.134;5.500;2024-02-26T00:00:25;5.60;83.57
84067;SHT35;74151;52.134;5.500;2024-02-26T00:02:58;5.56;83.83
84067;SHT35;74151;52.134;5.500;2024-02-26T00:05:29;5.55;83.87
84067;SHT35;74151;52.134;5.500;2024-02-26T00:08:03;5.53;83.87
84067;SHT35;74151;52.134;5.500;2024-02-26T00:10:34;5.51;83.86
84067;SHT35;74151;52.134;5.500;2024-02-26T00:13:08;5.48;84.26
84067;SHT35;74151;52.134;5.500;2024-02-26T00:15:39;5.47;84.21
84067;SHT35;74151;52.134;5.500;2024-02-26T00:18:13;5.47;84.32
84067;SHT35;74151;52.134;5.500;2024-02-26T00:20:46;5.47;84.17
84067;SHT35;74151;52.134;5.500;2024-02-26T00:23:20;5.45;84.28
84067;SHT35;74151;52.134;5.500;2024-02-26T00:25:52;5.44;84.29
84067;SHT35;74151;52.134;5.500;2024-02-26T00:28:24;5.42;84.33
84067;SHT35;74151;52.134;5.500;2024-02-26T00:30:56;5.42;84.30
84067;SHT35;74151;52.134;5.500;2024-02-26T00:33:32;5.41;84.27
84067;SHT35;74151;52.134;5.500;2024-02-26T00:36:06;5.38;84.19
84067;SHT35;74151;52.134;5.500;2024-02-26T00:38:37;5.34;84.13
84067;SHT35;74151;52.134;5.500;2024-02-26T00:41:09;5.29;84.39
84067;SHT35;74151;52.134;5.500;2024-02-26T00:43:45;5.24;84.51
84067;SHT35;74151;52.134;5.500;2024-02-26T00:46:16;5.18;84.68
84067;SHT35;74151;52.134;5.500;2024-02-26T00:48:47;5.13;84.90
84067;SHT35;74151;52.134;5.500;2024-02-26T00:51:21;5.07;84.90
84067;SHT35;74151;52.134;5.500;2024-02-26T00:53:56;5.01;85.14
84067;SHT35;74151;52.134;5.500;2024-02-26T00:56:32;4.96;85.50
84067;SHT35;74151;52.134;5.500;2024-02-26T00:59:03;4.92;85.40
84067;SHT35;74151;52.134;5.500;2024-02-26T01:01:37;4.88;85.68
84067;SHT35;74151;52.134;5.500;2024-02-26T01:04:08;4.86;85.71
84067;SHT35;74151;52.134;5.500;2024-02-26T01:06:43;4.83;85.76
84067;SHT35;74151;52.134;5.500;2024-02-26T01:09:15;4.81;86.24
84067;SHT35;74151;52.134;5.500;2024-02-26T01:11:51;4.80;85.95
84067;SHT35;74151;52.134;5.500;2024-02-26T01:14:23;4.78;86.01
84067;SHT35;74151;52.134;5.500;2024-02-26T01:16:56;4.76;86.09
84067;SHT35;74151;52.134;5.500;2024-02-26T01:19:32;4.73;86.12
84067;SHT35;74151;52.134;5.500;2024-02-26T01:22:03;4.70;86.16
84067;SHT35;74151;52.134;5.500;2024-02-26T01:24:37;4.67;86.41
84067;SHT35;74151;52.134;5.500;2024-02-26T01:27:11;4.66;86.46
84067;SHT35;74151;52.134;5.500;2024-02-26T01:29:47;4.64;86.73
84067;SHT35;74151;52.134;5.500;2024-02-26T01:32:20;4.62;86.75
84067;SHT35;74151;52.134;5.500;2024-02-26T01:35:00;4.61;86.91
84067;SHT35;74151;52.134;5.500;2024-02-26T01:37:45;4.59;86.91
84067;SHT35;74151;52.134;5.500;2024-02-26T01:40:19;4.58;86.98
84067;SHT35;74151;52.134;5.500;2024-02-26T01:42:55;4.55;87.06
84067;SHT35;74151;52.134;5.500;2024-02-26T01:45:29;4.53;87.24
84067;SHT35;74151;52.134;5.500;2024-02-26T01:48:07;4.53;87.30
84067;SHT35;74151;52.134;5.500;2024-02-26T01:50:40;4.53;87.26
84067;SHT35;74151;52.134;5.500;2024-02-26T01:53:12;4.54;87.33
84067;SHT35;74151;52.134;5.500;2024-02-26T01:55:48;4.56;87.06
84067;SHT35;74151;52.134;5.500;2024-02-26T01:58:24;4.58;86.89
84067;SHT35;74151;52.134;5.500;2024-02-26T02:00:57;4.59;87.03
84067;SHT35;74151;52.134;5.500;2024-02-26T02:03:33;4.64;86.47
84067;SHT35;74151;52.134;5.500;2024-02-26T02:06:08;4.64;86.49
84067;SHT35;74151;52.134;5.500;2024-02-26T02:08:39;4.67;86.48
84067;SHT35;74151;52.134;5.500;2024-02-26T02:11:11;4.68;86.25
84067;SHT35;74151;52.134;5.500;2024-02-26T02:13:44;4.69;86.33
84067;SHT35;74151;52.134;5.500;2024-02-26T02:16:18;4.70;86.21
84067;SHT35;74151;52.134;5.500;2024-02-26T02:18:49;4.72;86.38
84067;SHT35;74151;52.134;5.500;2024-02-26T02:21:20;4.74;86.13
84067;SHT35;74151;52.134;5.500;2024-02-26T02:23:56;4.75;85.88
84067;SHT35;74151;52.134;5.500;2024-02-26T02:26:30;4.79;86.21
84067;SHT35;74151;52.134;5.500;2024-02-26T02:29:06;4.81;85.45
84067;SHT35;74151;52.134;5.500;2024-02-26T02:31:41;4.84;85.39
84067;SHT35;74151;52.134;5.500;2024-02-26T02:34:13;4.88;85.45
84067;SHT35;74151;52.134;5.500;2024-02-26T02:36:54;4.93;85.40
84067;SHT35;74151;52.134;5.500;2024-02-26T02:39:27;4.98;85.24
84067;SHT35;74151;52.134;5.500;2024-02-26T02:42:01;5.01;84.35
84067;SHT35;74151;52.134;5.500;2024-02-26T02:44:34;5.05;84.50
84067;SHT35;74151;52.134;5.500;2024-02-26T02:47:12;5.08;83.98
84067;SHT35;74151;52.134;5.500;2024-02-26T02:49:48;5.14;83.88
84067;SHT35;74151;52.134;5.500;2024-02-26T02:52:23;5.18;83.47
84067;SHT35;74151;52.134;5.500;2024-02-26T02:54:58;5.22;83.03
84067;SHT35;74151;52.134;5.500;2024-02-26T02:57:33;5.22;83.05
84067;SHT35;74151;52.134;5.500;2024-02-26T03:00:10;5.24;83.01
84067;SHT35;74151;52.134;5.500;2024-02-26T03:02:46;5.23;83.19
84067;SHT35;74151;52.134;5.500;2024-02-26T03:05:21;5.23;82.89
84067;SHT35;74151;52.134;5.500;2024-02-26T03:07:57;5.21;83.08
84067;SHT35;74151;52.134;5.500;2024-02-26T03:10:29;5.19;83.06
84067;SHT35;74151;52.134;5.500;2024-02-26T03:13:00;5.17;83.06
84067;SHT35;74151;52.134;5.500;2024-02-26T03:15:31;5.15;83.32
84067;SHT35;74151;52.134;5.500;2024-02-26T03:18:03;5.13;83.45
84067;SHT35;74151;52.134;5.500;2024-02-26T03:20:34;5.13;83.45
84067;SHT35;74151;52.134;5.500;2024-02-26T03:23:13;5.11;83.84
84067;SHT35;74151;52.134;5.500;2024-02-26T03:25:47;5.09;83.64
84067;SHT35;74151;52.134;5.500;2024-02-26T03:28:26;5.08;83.69
84067;SHT35;74151;52.134;5.500;2024-02-26T03:31:02;5.04;84.02
84067;SHT35;74151;52.134;5.500;2024-02-26T03:33:35;5.02;84.56
84067;SHT35;74151;52.134;5.500;2024-02-26T03:36:09;5.01;84.32
84067;SHT35;74151;52.134;5.500;2024-02-26T03:38:42;4.99;84.11
84067;SHT35;74151;52.134;5.500;2024-02-26T03:41:18;4.94;84.45
84067;SHT35;74151;52.134;5.500;2024-02-26T03:43:51;4.90;84.90
84067;SHT35;74151;52.134;5.500;2024-02-26T03:46:23;4.88;84.90
84067;SHT35;74151;52.134;5.500;2024-02-26T03:48:54;4.87;85.02
84067;SHT35;74151;52.134;5.500;2024-02-26T03:51:28;4.86;84.93
84067;SHT35;74151;52.134;5.500;2024-02-26T03:54:01;4.83;85.03
84067;SHT35;74151;52.134;5.500;2024-02-26T03:56:32;4.82;85.15
84067;SHT35;74151;52.134;5.500;2024-02-26T03:59:03;4.80;85.23
84067;SHT35;74151;52.134;5.500;2024-02-26T04:01:35;4.79;85.08
84067;SHT35;74151;52.134;5.500;2024-02-26T04:04:08;4.73;85.24
84067;SHT35;74151;52.134;5.500;2024-02-26T04:06:44;4.69;85.69
84067;SHT35;74151;52.134;5.500;2024-02-26T04:09:20;4.68;85.73
84067;SHT35;74151;52.134;5.500;2024-02-26T04:11:52;4.67;85.90
84067;SHT35;74151;52.134;5.500;2024-02-26T04:14:25;4.70;86.01
84067;SHT35;74151;52.134;5.500;2024-02-26T04:16:56;4.70;85.68
84067;SHT35;74151;52.134;5.500;2024-02-26T04:19:28;4.73;85.55
84067;SHT35;74151;52.134;5.500;2024-02-26T04:22:00;4.76;85.65
84067;SHT35;74151;52.134;5.500;2024-02-26T04:24:31;4.77;84.91
84067;SHT35;74151;52.134;5.500;2024-02-26T04:27:05;4.79;84.96
84067;SHT35;74151;52.134;5.500;2024-02-26T04:29:39;4.79;85.04
84067;SHT35;74151;52.134;5.500;2024-02-26T04:32:13;4.80;85.03
84067;SHT35;74151;52.134;5.500;2024-02-26T04:34:46;4.80;84.84
84067;SHT35;74151;52.134;5.500;2024-02-26T04:37:20;4.82;84.67
84067;SHT35;74151;52.134;5.500;2024-02-26T04:39:54;4.82;84.71
84067;SHT35;74151;52.134;5.500;2024-02-26T04:42:25;4.81;84.62
84067;SHT35;74151;52.134;5.500;2024-02-26T04:44:59;4.81;84.72
84067;SHT35;74151;52.134;5.500;2024-02-26T04:47:35;4.81;84.82
84067;SHT35;74151;52.134;5.500;2024-02-26T04:50:08;4.81;84.69
84067;SHT35;74151;52.134;5.500;2024-02-26T04:52:40;4.81;84.93
84067;SHT35;74151;52.134;5.500;2024-02-26T04:55:12;4.81;84.77
84067;SHT35;74151;52.134;5.500;2024-02-26T04:57:43;4.81;84.63
84067;SHT35;74151;52.134;5.500;2024-02-26T05:00:17;4.80;85.05
84067;SHT35;74151;52.134;5.500;2024-02-26T05:02:54;4.79;84.80
84067;SHT35;74151;52.134;5.500;2024-02-26T05:05:30;4.78;85.23
84067;SHT35;74151;52.134;5.500;2024-02-26T05:08:04;4.75;85.10
84067;SHT35;74151;52.134;5.500;2024-02-26T05:10:38;4.72;84.90
84067;SHT35;74151;52.134;5.500;2024-02-26T05:13:12;4.69;85.53
84067;SHT35;74151;52.134;5.500;2024-02-26T05:15:44;4.64;85.84
84067;SHT35;74151;52.134;5.500;2024-02-26T05:18:27;4.64;86.08
84067;SHT35;74151;52.134;5.500;2024-02-26T05:21:00;4.62;85.89
84067;SHT35;74151;52.134;5.500;2024-02-26T05:23:32;4.61;86.21
84067;SHT35;74151;52.134;5.500;2024-02-26T05:26:06;4.58;86.32
84067;SHT35;74151;52.134;5.500;2024-02-26T05:28:37;4.57;86.27
84067;SHT35;74151;52.134;5.500;2024-02-26T05:31:13;4.55;86.46
84067;SHT35;74151;52.134;5.500;2024-02-26T05:33:45;4.54;86.35
84067;SHT35;74151;52.134;5.500;2024-02-26T05:36:26;4.51;86.83
84067;SHT35;74151;52.134;5.500;2024-02-26T05:39:02;4.51;86.76
84067;SHT35;74151;52.134;5.500;2024-02-26T05:41:36;4.52;86.78
84067;SHT35;74151;52.134;5.500;2024-02-26T05:44:07;4.51;86.85
84067;SHT35;74151;52.134;5.500;2024-02-26T05:46:39;4.51;86.91
84067;SHT35;74151;52.134;5.500;2024-02-26T05:49:13;4.53;86.63
84067;SHT35;74151;52.134;5.500;2024-02-26T05:51:47;4.52;86.65
84067;SHT35;74151;52.134;5.500;2024-02-26T05:54:20;4.49;86.77
84067;SHT35;74151;52.134;5.500;2024-02-26T05:56:52;4.48;86.85
84067;SHT35;74151;52.134;5.500;2024-02-26T05:59:29;4.47;87.35
84067;SHT35;74151;52.134;5.500;2024-02-26T06:02:03;4.47;87.18
84067;SHT35;74151;52.134;5.500;2024-02-26T06:04:36;4.49;87.35
84067;SHT35;74151;52.134;5.500;2024-02-26T06:07:07;4.49;87.05
84067;SHT35;74151;52.134;5.500;2024-02-26T06:09:41;4.47;87.23
84067;SHT35;74151;52.134;5.500;2024-02-26T06:12:13;4.46;87.13
84067;SHT35;74151;52.134;5.500;2024-02-26T06:14:48;4.46;87.01
84067;SHT35;74151;52.134;5.500;2024-02-26T06:17:22;4.45;87.45
84067;SHT35;74151;52.134;5.500;2024-02-26T06:19:58;4.47;87.39
84067;SHT35;74151;52.134;5.500;2024-02-26T06:22:30;4.49;87.02
84067;SHT35;74151;52.134;5.500;2024-02-26T06:25:06;4.49;86.96
84067;SHT35;74151;52.134;5.500;2024-02-26T06:27:44;4.49;86.70
84067;SHT35;74151;52.134;5.500;2024-02-26T06:30:20;4.51;87.33
84067;SHT35;74151;52.134;5.500;2024-02-26T06:32:56;4.51;87.21
84067;SHT35;74151;52.134;5.500;2024-02-26T06:35:30;4.52;87.72
84067;SHT35;74151;52.134;5.500;2024-02-26T06:38:05;4.53;87.55
84067;SHT35;74151;52.134;5.500;2024-02-26T06:40:43;4.53;87.31
84067;SHT35;74151;52.134;5.500;2024-02-26T06:43:15;4.52;87.97
84067;SHT35;74151;52.134;5.500;2024-02-26T06:45:46;4.53;87.66
84067;SHT35;74151;52.134;5.500;2024-02-26T06:48:25;4.53;87.73
84067;SHT35;74151;52.134;5.500;2024-02-26T06:50:56;4.54;87.72
84067;SHT35;74151;52.134;5.500;2024-02-26T06:53:30;4.53;87.48
84067;SHT35;74151;52.134;5.500;2024-02-26T06:56:01;4.51;87.72
84067;SHT35;74151;52.134;5.500;2024-02-26T06:58:35;4.51;88.14
84067;SHT35;74151;52.134;5.500;2024-02-26T07:01:12;4.51;87.93
84067;SHT35;74151;52.134;5.500;2024-02-26T07:03:50;4.51;87.72
84067;SHT35;74151;52.134;5.500;2024-02-26T07:06:21;4.51;87.83
84067;SHT35;74151;52.134;5.500;2024-02-26T07:08:55;4.51;87.53
84067;SHT35;74151;52.134;5.500;2024-02-26T07:11:29;4.53;87.70
84067;SHT35;74151;52.134;5.500;2024-02-26T07:14:02;4.54;87.70
84067;SHT35;74151;52.134;5.500;2024-02-26T07:16:38;4.56;87.90
84067;SHT35;74151;52.134;5.500;2024-02-26T07:19:11;4.58;87.79
84067;SHT35;74151;52.134;5.500;2024-02-26T07:21:45;4.60;87.91
84067;SHT35;74151;52.134;5.500;2024-02-26T07:24:18;4.62;87.66
84067;SHT35;74151;52.134;5.500;2024-02-26T07:26:52;4.62;88.04
84067;SHT35;74151;52.134;5.500;2024-02-26T07:29:28;4.63;87.69
84067;SHT35;74151;52.134;5.500;2024-02-26T07:32:01;4.62;87.83
84067;SHT35;74151;52.134;5.500;2024-02-26T07:34:32;4.62;87.94
84067;SHT35;74151;52.134;5.500;2024-02-26T07:37:09;4.66;88.19
84067;SHT35;74151;52.134;5.500;2024-02-26T07:39:42;4.70;88.09
84067;SHT35;74151;52.134;5.500;2024-02-26T07:42:15;4.69;88.23
84067;SHT35;74151;52.134;5.500;2024-02-26T07:44:48;4.72;88.35
84067;SHT35;74151;52.134;5.500;2024-02-26T07:47:22;4.74;88.41
84067;SHT35;74151;52.134;5.500;2024-02-26T07:49:58;4.75;88.39
84067;SHT35;74151;52.134;5.500;2024-02-26T07:52:32;4.75;88.32
84067;SHT35;74151;52.134;5.500;2024-02-26T07:55:04;4.76;88.94
84067;SHT35;74151;52.134;5.500;2024-02-26T07:57:36;4.77;88.88
84067;SHT35;74151;52.134;5.500;2024-02-26T08:00:12;4.79;88.79
84067;SHT35;74151;52.134;5.500;2024-02-26T08:02:48;4.79;88.95
84067;SHT35;74151;52.134;5.500;2024-02-26T08:05:22;4.80;88.92
84067;SHT35;74151;52.134;5.500;2024-02-26T08:07:58;4.82;89.07
84067;SHT35;74151;52.134;5.500;2024-02-26T08:10:30;4.85;89.21
84067;SHT35;74151;52.134;5.500;2024-02-26T08:13:24;4.87;88.88
84067;SHT35;74151;52.134;5.500;2024-02-26T08:15:55;4.88;88.41
84067;SHT35;74151;52.134;5.500;2024-02-26T08:18:27;4.89;89.06
84067;SHT35;74151;52.134;5.500;2024-02-26T08:21:01;4.89;88.53
84067;SHT35;74151;52.134;5.500;2024-02-26T08:23:35;4.92;88.87
84067;SHT35;74151;52.134;5.500;2024-02-26T08:26:13;4.97;88.43
84067;SHT35;74151;52.134;5.500;2024-02-26T08:28:46;4.98;88.47
84067;SHT35;74151;52.134;5.500;2024-02-26T08:31:24;4.99;88.37
84067;SHT35;74151;52.134;5.500;2024-02-26T08:33:59;4.99;88.24
84067;SHT35;74151;52.134;5.500;2024-02-26T08:36:32;4.98;88.00
84067;SHT35;74151;52.134;5.500;2024-02-26T08:39:11;4.98;88.20
84067;SHT35;74151;52.134;5.500;2024-02-26T08:41:43;4.98;88.28
84067;SHT35;74151;52.134;5.500;2024-02-26T08:44:19;4.97;88.08
84067;SHT35;74151;52.134;5.500;2024-02-26T08:46:57;4.97;88.10
84067;SHT35;74151;52.134;5.500;2024-02-26T08:49:31;4.97;88.48
84067;SHT35;74151;52.134;5.500;2024-02-26T08:52:03;4.96;88.19
84067;SHT35;74151;52.134;5.500;2024-02-26T08:54:40;4.95;87.65
84067;SHT35;74151;52.134;5.500;2024-02-26T08:57:16;4.93;87.91
84067;SHT35;74151;52.134;5.500;2024-02-26T08:59:47;4.94;88.14
84067;SHT35;74151;52.134;5.500;2024-02-26T09:02:19;4.92;88.46
84067;SHT35;74151;52.134;5.500;2024-02-26T09:04:50;4.90;87.81
84067;SHT35;74151;52.134;5.500;2024-02-26T09:07:26;4.88;87.99
84067;SHT35;74151;52.134;5.500;2024-02-26T09:09:57;4.88;88.69
84067;SHT35;74151;52.134;5.500;2024-02-26T09:12:29;4.86;88.91
84067;SHT35;74151;52.134;5.500;2024-02-26T09:15:00;4.87;88.26
84067;SHT35;74151;52.134;5.500;2024-02-26T09:17:34;4.85;88.34
84067;SHT35;74151;52.134;5.500;2024-02-26T09:20:08;4.84;88.89
84067;SHT35;74151;52.134;5.500;2024-02-26T09:22:39;4.83;88.48
84067;SHT35;74151;52.134;5.500;2024-02-26T09:25:16;4.83;88.80
84067;SHT35;74151;52.134;5.500;2024-02-26T09:27:54;4.84;88.59
84067;SHT35;74151;52.134;5.500;2024-02-26T09:30:27;4.82;88.98
84067;SHT35;74151;52.134;5.500;2024-02-26T09:32:59;4.82;88.89
84067;SHT35;74151;52.134;5.500;2024-02-26T09:35:32;4.83;89.30
84067;SHT35;74151;52.134;5.500;2024-02-26T09:38:07;4.85;89.22
84067;SHT35;74151;52.134;5.500;2024-02-26T09:40:45;4.87;88.97
84067;SHT35;74151;52.134;5.500;2024-02-26T09:43:22;4.86;88.73
84067;SHT35;74151;52.134;5.500;2024-02-26T09:46:00;4.86;89.09
84067;SHT35;74151;52.134;5.500;2024-02-26T09:48:36;4.86;89.01
84067;SHT35;74151;52.134;5.500;2024-02-26T09:51:15;4.88;89.47
84067;SHT35;74151;52.134;5.500;2024-02-26T09:53:53;4.90;89.78
84067;SHT35;74151;52.134;5.500;2024-02-26T09:56:29;4.93;88.88
84067;SHT35;74151;52.134;5.500;2024-02-26T09:59:09;4.96;89.29
84067;SHT35;74151;52.134;5.500;2024-02-26T10:01:42;4.97;89.92
84067;SHT35;74151;52.134;5.500;2024-02-26T10:04:20;5.00;89.35
84067;SHT35;74151;52.134;5.500;2024-02-26T10:06:57;5.03;89.32
84067;SHT35;74151;52.134;5.500;2024-02-26T10:09:35;5.00;89.31
84067;SHT35;74151;52.134;5.500;2024-02-26T10:12:11;5.01;89.92
84067;SHT35;74151;52.134;5.500;2024-02-26T10:14:44;5.01;89.47
84067;SHT35;74151;52.134;5.500;2024-02-26T10:17:19;4.99;89.37
84067;SHT35;74151;52.134;5.500;2024-02-26T10:20:14;5.00;89.27
84067;SHT35;74151;52.134;5.500;2024-02-26T10:22:53;4.99;89.96
84067;SHT35;74151;52.134;5.500;2024-02-26T10:25:24;5.00;90.09
84067;SHT35;74151;52.134;5.500;2024-02-26T10:28:00;5.02;88.93
84067;SHT35;74151;52.134;5.500;2024-02-26T10:30:37;5.02;89.96
84067;SHT35;74151;52.134;5.500;2024-02-26T10:33:10;5.07;90.60
84067;SHT35;74151;52.134;5.500;2024-02-26T10:35:46;5.10;90.00
84067;SHT35;74151;52.134;5.500;2024-02-26T10:38:20;5.11;89.07
84067;SHT35;74151;52.134;5.500;2024-02-26T10:40:51;5.14;90.23
84067;SHT35;74151;52.134;5.500;2024-02-26T10:43:27;5.19;89.21
84067;SHT35;74151;52.134;5.500;2024-02-26T10:46:03;5.21;90.26
84067;SHT35;74151;52.134;5.500;2024-02-26T10:48:38;5.26;89.69
84067;SHT35;74151;52.134;5.500;2024-02-26T10:51:14;5.28;89.38
84067;SHT35;74151;52.134;5.500;2024-02-26T10:53:48;5.29;89.19
84067;SHT35;74151;52.134;5.500;2024-02-26T10:56:36;5.31;89.33
84067;SHT35;74151;52.134;5.500;2024-02-26T10:59:10;5.29;88.90
84067;SHT35;74151;52.134;5.500;2024-02-26T11:01:44;5.31;88.58
84067;SHT35;74151;52.134;5.500;2024-02-26T11:04:18;5.32;89.34
84067;SHT35;74151;52.134;5.500;2024-02-26T11:06:51;5.35;89.53
84067;SHT35;74151;52.134;5.500;2024-02-26T11:09:26;5.37;89.60
84067;SHT35;74151;52.134;5.500;2024-02-26T11:11:59;5.42;88.76
84067;SHT35;74151;52.134;5.500;2024-02-26T11:14:34;5.44;88.97
84067;SHT35;74151;52.134;5.500;2024-02-26T11:17:08;5.45;88.81
84067;SHT35;74151;52.134;5.500;2024-02-26T11:19:41;5.44;88.74
84067;SHT35;74151;52.134;5.500;2024-02-26T11:22:18;5.44;89.09
84067;SHT35;74151;52.134;5.500;2024-02-26T11:24:54;5.44;90.04
84067;SHT35;74151;52.134;5.500;2024-02-26T11:27:34;5.44;89.22
84067;SHT35;74151;52.134;5.500;2024-02-26T11:30:11;5.42;89.63
84067;SHT35;74151;52.134;5.500;2024-02-26T11:32:48;5.44;90.24
84067;SHT35;74151;52.134;5.500;2024-02-26T11:35:26;5.45;89.71
84067;SHT35;74151;52.134;5.500;2024-02-26T11:37:59;5.44;90.06
84067;SHT35;74151;52.134;5.500;2024-02-26T11:40:38;5.43;90.18
84067;SHT35;74151;52.134;5.500;2024-02-26T11:43:17;5.43;90.96
84067;SHT35;74151;52.134;5.500;2024-02-26T11:45:51;5.42;90.24
84067;SHT35;74151;52.134;5.500;2024-02-26T11:48:25;5.42;90.73
84067;SHT35;74151;52.134;5.500;2024-02-26T11:51:06;5.43;91.15
84067;SHT35;74151;52.134;5.500;2024-02-26T11:53:47;5.50;91.03
84067;SHT35;74151;52.134;5.500;2024-02-26T12:01:47;5.53;90.00
84067;SHT35;74151;52.134;5.500;2024-02-26T12:04:26;5.54;90.10
84067;SHT35;74151;52.134;5.500;2024-02-26T12:07:02;5.56;90.06
84067;SHT35;74151;52.134;5.500;2024-02-26T12:09:43;5.54;88.53
84067;SHT35;74151;52.134;5.500;2024-02-26T12:12:18;5.53;89.54
84067;SHT35;74151;52.134;5.500;2024-02-26T12:15:02;5.52;89.00
84067;SHT35;74151;52.134;5.500;2024-02-26T12:17:36;5.52;89.03
84067;SHT35;74151;52.134;5.500;2024-02-26T12:20:13;5.52;89.60
84067;SHT35;74151;52.134;5.500;2024-02-26T12:22:49;5.51;89.58
84067;SHT35;74151;52.134;5.500;2024-02-26T12:25:28;5.52;89.42
84067;SHT35;74151;52.134;5.500;2024-02-26T12:28:02;5.53;89.85
84067;SHT35;74151;52.134;5.500;2024-02-26T12:30:33;5.55;89.53
84067;SHT35;74151;52.134;5.500;2024-02-26T12:33:08;5.59;89.30
84067;SHT35;74151;52.134;5.500;2024-02-26T12:35:40;5.60;89.02
84067;SHT35;74151;52.134;5.500;2024-02-26T12:38:14;5.61;89.40
84067;SHT35;74151;52.134;5.500;2024-02-26T12:40:48;5.64;88.82
84067;SHT35;74151;52.134;5.500;2024-02-26T12:43:21;5.63;88.19
84067;SHT35;74151;52.134;5.500;2024-02-26T12:45:53;5.61;87.99
84067;SHT35;74151;52.134;5.500;2024-02-26T12:48:25;5.59;89.19
84067;SHT35;74151;52.134;5.500;2024-02-26T12:51:01;5.60;89.45
84067;SHT35;74151;52.134;5.500;2024-02-26T12:53:35;5.60;89.27
84067;SHT35;74151;52.134;5.500;2024-02-26T12:56:09;5.62;89.43
84067;SHT35;74151;52.134;5.500;2024-02-26T12:58:47;5.65;89.67
84067;SHT35;74151;52.134;5.500;2024-02-26T13:01:24;5.67;88.66
84067;SHT35;74151;52.134;5.500;2024-02-26T13:03:57;5.68;88.29
84067;SHT35;74151;52.134;5.500;2024-02-26T13:06:40;5.72;87.77
84067;SHT35;74151;52.134;5.500;2024-02-26T13:09:15;5.72;87.26
84067;SHT35;74151;52.134;5.500;2024-02-26T13:11:53;5.73;87.78
84067;SHT35;74151;52.134;5.500;2024-02-26T13:14:25;5.73;88.43
84067;SHT35;74151;52.134;5.500;2024-02-26T13:16:57;5.76;88.65
84067;SHT35;74151;52.134;5.500;2024-02-26T13:19:31;5.77;87.71
84067;SHT35;74151;52.134;5.500;2024-02-26T13:22:07;5.77;87.18
84067;SHT35;74151;52.134;5.500;2024-02-26T13:24:41;5.76;86.86
84067;SHT35;74151;52.134;5.500;2024-02-26T13:27:20;5.77;87.77
84067;SHT35;74151;52.134;5.500;2024-02-26T13:30:12;5.76;87.47
84067;SHT35;74151;52.134;5.500;2024-02-26T13:32:53;5.78;87.47
84067;SHT35;74151;52.134;5.500;2024-02-26T13:35:29;5.80;88.16
84067;SHT35;74151;52.134;5.500;2024-02-26T13:38:02;5.83;88.05
84067;SHT35;74151;52.134;5.500;2024-02-26T13:40:36;5.84;87.10
84067;SHT35;74151;52.134;5.500;2024-02-26T13:43:10;5.85;87.34
84067;SHT35;74151;52.134;5.500;2024-02-26T13:45:46;5.88;87.91
84067;SHT35;74151;52.134;5.500;2024-02-26T13:48:20;5.89;86.99
84067;SHT35;74151;52.134;5.500;2024-02-26T13:50:52;5.87;86.91
84067;SHT35;74151;52.134;5.500;2024-02-26T13:53:23;5.88;86.97
84067;SHT35;74151;52.134;5.500;2024-02-26T13:55:54;5.89;87.13
84067;SHT35;74151;52.134;5.500;2024-02-26T13:58:32;5.90;87.44
84067;SHT35;74151;52.134;5.500;2024-02-26T14:01:03;5.92;87.68
84067;SHT35;74151;52.134;5.500;2024-02-26T14:03:37;5.92;86.48
84067;SHT35;74151;52.134;5.500;2024-02-26T14:06:08;5.94;86.46
84067;SHT35;74151;52.134;5.500;2024-02-26T14:08:47;5.97;85.98
84067;SHT35;74151;52.134;5.500;2024-02-26T14:11:18;5.99;85.64
84067;SHT35;74151;52.134;5.500;2024-02-26T14:13:49;5.99;85.51
84067;SHT35;74151;52.134;5.500;2024-02-26T14:16:26;5.97;85.15
84067;SHT35;74151;52.134;5.500;2024-02-26T14:19:00;5.94;84.73
84067;SHT35;74151;52.134;5.500;2024-02-26T14:21:35;5.92;85.49
84067;SHT35;74151;52.134;5.500;2024-02-26T14:24:08;5.91;85.38
84067;SHT35;74151;52.134;5.500;2024-02-26T14:26:42;5.93;85.24
84067;SHT35;74151;52.134;5.500;2024-02-26T14:29:13;5.89;84.81
84067;SHT35;74151;52.134;5.500;2024-02-26T14:31:50;5.86;84.69
84067;SHT35;74151;52.134;5.500;2024-02-26T14:34:28;5.85;84.92
84067;SHT35;74151;52.134;5.500;2024-02-26T14:37:02;5.86;86.04
84067;SHT35;74151;52.134;5.500;2024-02-26T14:39:34;5.86;85.16
84067;SHT35;74151;52.134;5.500;2024-02-26T14:42:07;5.90;85.03
84067;SHT35;74151;52.134;5.500;2024-02-26T14:44:45;5.94;85.19
84067;SHT35;74151;52.134;5.500;2024-02-26T14:47:20;5.94;84.16
84067;SHT35;74151;52.134;5.500;2024-02-26T14:49:55;5.92;83.82
84067;SHT35;74151;52.134;5.500;2024-02-26T14:52:32;5.94;84.50
84067;SHT35;74151;52.134;5.500;2024-02-26T14:55:07;5.95;83.47
84067;SHT35;74151;52.134;5.500;2024-02-26T14:57:43;5.95;84.24
84067;SHT35;74151;52.134;5.500;2024-02-26T15:00:19;5.96;83.81
84067;SHT35;74151;52.134;5.500;2024-02-26T15:02:54;5.96;84.27
84067;SHT35;74151;52.134;5.500;2024-02-26T15:05:31;5.98;84.30
84067;SHT35;74151;52.134;5.500;2024-02-26T15:08:07;5.99;84.47
84067;SHT35;74151;52.134;5.500;2024-02-26T15:10:44;6.01;84.71
84067;SHT35;74151;52.134;5.500;2024-02-26T15:13:20;6.04;84.89
84067;SHT35;74151;52.134;5.500;2024-02-26T15:15:51;6.05;83.30
84067;SHT35;74151;52.134;5.500;2024-02-26T15:18:32;6.05;83.84
84067;SHT35;74151;52.134;5.500;2024-02-26T15:21:07;6.08;84.20
84067;SHT35;74151;52.134;5.500;2024-02-26T15:23:46;6.08;83.37
84067;SHT35;74151;52.134;5.500;2024-02-26T15:26:39;6.08;82.63
84067;SHT35;74151;52.134;5.500;2024-02-26T15:29:15;6.05;83.35
84067;SHT35;74151;52.134;5.500;2024-02-26T15:31:50;6.05;83.05
84067;SHT35;74151;52.134;5.500;2024-02-26T15:34:24;6.05;83.19
84067;SHT35;74151;52.134;5.500;2024-02-26T15:36:58;6.04;82.89
84067;SHT35;74151;52.134;5.500;2024-02-26T15:39:31;6.03;83.10
84067;SHT35;74151;52.134;5.500;2024-02-26T15:42:08;6.01;83.17
84067;SHT35;74151;52.134;5.500;2024-02-26T15:44:42;5.99;83.47
84067;SHT35;74151;52.134;5.500;2024-02-26T15:47:18;5.98;83.47
84067;SHT35;74151;52.134;5.500;2024-02-26T15:49:53;6.00;83.06
84067;SHT35;74151;52.134;5.500;2024-02-26T15:52:25;6.01;83.54
84067;SHT35;74151;52.134;5.500;2024-02-26T15:54:59;6.04;84.10
84067;SHT35;74151;52.134;5.500;2024-02-26T15:57:36;6.07;84.36
84067;SHT35;74151;52.134;5.500;2024-02-26T16:00:08;6.10;83.52
84067;SHT35;74151;52.134;5.500;2024-02-26T16:02:49;6.08;83.75
84067;SHT35;74151;52.134;5.500;2024-02-26T16:05:20;6.06;82.57
84067;SHT35;74151;52.134;5.500;2024-02-26T16:07:57;6.04;83.10
84067;SHT35;74151;52.134;5.500;2024-02-26T16:10:32;6.04;83.42
84067;SHT35;74151;52.134;5.500;2024-02-26T16:13:11;6.01;82.40
84067;SHT35;74151;52.134;5.500;2024-02-26T16:15:58;5.95;82.77
84067;SHT35;74151;52.134;5.500;2024-02-26T16:18:35;5.89;82.10
84067;SHT35;74151;52.134;5.500;2024-02-26T16:21:07;5.85;82.53
84067;SHT35;74151;52.134;5.500;2024-02-26T16:23:45;5.80;82.62
84067;SHT35;74151;52.134;5.500;2024-02-26T16:26:16;5.71;82.62
84067;SHT35;74151;52.134;5.500;2024-02-26T16:28:52;5.67;83.36
84067;SHT35;74151;52.134;5.500;2024-02-26T16:31:27;5.64;82.74
84067;SHT35;74151;52.134;5.500;2024-02-26T16:33:59;5.60;83.59
84067;SHT35;74151;52.134;5.500;2024-02-26T16:36:31;5.54;83.20